createdAt,value
2023-02-22T00:02:25.827Z,9.67
2023-02-22T00:04:58.350Z,9.85
2023-02-22T00:07:34.202Z,9.85
2023-02-22T00:10:09.658Z,9.37
2023-02-22T00:12:46.100Z,9.56
2023-02-22T00:15:19.601Z,9.46
2023-02-22T00:17:52.361Z,9.62
2023-02-22T00:20:25.275Z,9.71
2023-02-22T00:23:21.956Z,9.67
2023-02-22T00:25:54.355Z,9.57
2023-02-22T00:28:30.926Z,9.57
2023-02-22T00:31:04.258Z,9.58
2023-02-22T00:33:37.281Z,9.56
2023-02-22T00:36:15.128Z,9.63
2023-02-22T00:38:54.974Z,9.68
2023-02-22T00:41:26.406Z,9.65
2023-02-22T00:43:58.047Z,9.63
2023-02-22T00:46:29.885Z,9.57
2023-02-22T00:49:04.525Z,9.56
2023-02-22T00:51:38.233Z,9.57
2023-02-22T00:54:21.091Z,9.55
2023-02-22T00:56:55.517Z,9.57
2023-02-22T00:59:28.177Z,9.54
2023-02-22T01:02:00.277Z,9.41
2023-02-22T01:04:41.555Z,9.45
2023-02-22T01:07:14.717Z,9.44
2023-02-22T01:09:49.625Z,9.43
2023-02-22T01:12:21.434Z,9.42
2023-02-22T01:14:57.307Z,9.51
2023-02-22T01:17:29.463Z,9.48
2023-02-22T01:20:01.539Z,9.55
2023-02-22T01:22:33.494Z,9.57
2023-02-22T01:25:09.011Z,9.60
2023-02-22T01:27:42.410Z,9.55
2023-02-22T01:30:16.805Z,9.53
2023-02-22T01:32:51.449Z,9.55
2023-02-22T01:35:26.286Z,9.47
2023-02-22T01:37:58.396Z,9.34
2023-02-22T01:40:36.283Z,9.28
2023-02-22T01:43:18.725Z,9.18
2023-02-22T01:45:58.484Z,9.15
2023-02-22T01:48:37.231Z,9.13
2023-02-22T01:51:14.947Z,9.07
2023-02-22T01:53:53.634Z,9.01
2023-02-22T01:56:30.978Z,8.91
2023-02-22T01:59:07.237Z,8.91
2023-02-22T02:01:43.325Z,8.74
2023-02-22T02:04:18.703Z,8.73
2023-02-22T02:06:51.818Z,8.77
2023-02-22T02:09:32.027Z,8.74
2023-02-22T02:12:08.509Z,8.78
2023-02-22T02:14:41.260Z,8.75
2023-02-22T02:17:16.554Z,8.85
2023-02-22T02:19:55.718Z,8.90
2023-02-22T02:22:45.810Z,8.91
2023-02-22T02:25:53.069Z,9.04
2023-02-22T02:29:04.750Z,8.98
2023-02-22T02:32:13.420Z,9.05
2023-02-22T02:34:58.843Z,9.13
2023-02-22T02:37:40.611Z,9.14
2023-02-22T02:40:24.100Z,9.05
2023-02-22T02:43:04.013Z,9.02
2023-02-22T02:45:42.369Z,8.95
2023-02-22T02:48:17.733Z,8.83
2023-02-22T02:50:53.851Z,8.84
2023-02-22T02:53:36.429Z,8.83
2023-02-22T02:56:09.103Z,8.83
2023-02-22T02:58:53.382Z,8.83
2023-02-22T03:01:48.437Z,8.74
2023-02-22T03:04:47.513Z,8.76
2023-02-22T03:07:43.593Z,8.58
2023-02-22T03:10:42.112Z,8.47
2023-02-22T03:13:22.967Z,8.61
2023-02-22T03:16:05.417Z,8.65
2023-02-22T03:18:48.102Z,8.62
2023-02-22T03:21:27.904Z,8.77
2023-02-22T03:24:21.794Z,8.71
2023-02-22T03:27:00.426Z,8.78
2023-02-22T03:29:37.627Z,8.76
2023-02-22T03:32:15.468Z,8.87
2023-02-22T03:34:50.999Z,8.82
2023-02-22T03:37:36.264Z,8.73
2023-02-22T03:40:27.007Z,8.87
2023-02-22T03:43:41.586Z,8.62
2023-02-22T03:46:23.351Z,8.54
2023-02-22T03:49:03.461Z,8.80
2023-02-22T03:51:35.926Z,8.86
2023-02-22T03:54:17.136Z,8.47
2023-02-22T03:57:01.931Z,8.55
2023-02-22T03:59:34.092Z,8.57
2023-02-22T04:02:06.176Z,8.59
2023-02-22T04:04:52.377Z,8.55
2023-02-22T04:07:39.925Z,8.58
2023-02-22T04:10:12.720Z,8.57
2023-02-22T04:12:47.467Z,8.60
2023-02-22T04:15:54.530Z,8.55
2023-02-22T04:18:24.386Z,8.67
2023-02-22T04:20:56.606Z,8.59
2023-02-22T04:23:28.933Z,8.53
2023-02-22T04:26:01.331Z,8.49
2023-02-22T04:28:36.008Z,8.54
2023-02-22T04:31:08.917Z,8.35
2023-02-22T04:33:40.996Z,8.47
2023-02-22T04:36:16.382Z,8.56
2023-02-22T04:38:48.533Z,8.58
2023-02-22T04:41:23.872Z,8.58
2023-02-22T04:43:59.796Z,8.72
2023-02-22T04:46:32.139Z,8.62
2023-02-22T04:49:04.465Z,8.76
2023-02-22T04:51:37.127Z,8.62
2023-02-22T04:54:09.336Z,8.62
2023-02-22T04:56:41.934Z,8.60
2023-02-22T04:59:16.696Z,8.51
2023-02-22T05:01:49.336Z,8.52
2023-02-22T05:04:45.562Z,8.36
2023-02-22T05:07:18.443Z,8.12
2023-02-22T05:09:50.420Z,8.27
2023-02-22T05:12:22.849Z,8.42
2023-02-22T05:14:57.502Z,8.31
2023-02-22T05:17:29.844Z,8.25
2023-02-22T05:20:02.201Z,8.10
2023-02-22T05:22:34.681Z,8.36
2023-02-22T05:25:07.492Z,8.52
2023-02-22T05:27:39.891Z,8.47
2023-02-22T05:30:16.839Z,8.55
2023-02-22T05:32:49.752Z,8.40
2023-02-22T05:35:22.536Z,8.33
2023-02-22T05:37:55.453Z,8.49
2023-02-22T05:40:29.815Z,8.59
2023-02-22T05:43:03.257Z,8.55
2023-02-22T05:45:37.756Z,8.48
2023-02-22T05:48:09.878Z,8.56
2023-02-22T05:50:41.796Z,8.63
2023-02-22T05:53:14.207Z,8.66
2023-02-22T05:55:46.632Z,8.47
2023-02-22T05:58:19.309Z,8.56
2023-02-22T06:00:53.875Z,8.45
2023-02-22T06:03:26.096Z,8.61
2023-02-22T06:05:58.298Z,8.67
2023-02-22T06:08:30.572Z,8.71
2023-02-22T06:11:30.552Z,8.68
2023-02-22T06:14:02.820Z,8.50
2023-02-22T06:16:37.709Z,8.47
2023-02-22T06:19:09.903Z,8.57
2023-02-22T06:21:42.392Z,8.48
2023-02-22T06:24:14.630Z,8.59
2023-02-22T06:26:46.603Z,8.77
2023-02-22T06:29:18.985Z,8.83
2023-02-22T06:31:54.299Z,8.82
2023-02-22T06:34:26.389Z,8.70
2023-02-22T06:36:59.994Z,8.71
2023-02-22T06:39:32.384Z,8.75
2023-02-22T06:42:04.771Z,8.96
2023-02-22T06:44:37.153Z,8.90
2023-02-22T06:47:11.757Z,8.79
2023-02-22T06:49:44.010Z,8.77
2023-02-22T06:52:15.811Z,8.93
2023-02-22T06:54:47.999Z,8.86
2023-02-22T06:57:20.793Z,8.81
2023-02-22T06:59:52.958Z,8.95
2023-02-22T07:02:33.008Z,8.69
2023-02-22T07:05:18.547Z,8.59
2023-02-22T07:07:52.708Z,8.83
2023-02-22T07:10:31.320Z,8.91
2023-02-22T07:13:03.719Z,8.99
2023-02-22T07:15:37.036Z,8.88
2023-02-22T07:18:12.333Z,9.15
2023-02-22T07:20:44.450Z,9.35
2023-02-22T07:23:18.334Z,9.55
2023-02-22T07:25:50.335Z,9.54
2023-02-22T07:28:22.236Z,9.43
2023-02-22T07:30:54.658Z,9.53
2023-02-22T07:33:29.230Z,9.33
2023-02-22T07:36:01.816Z,9.28
2023-02-22T07:38:34.154Z,9.26
2023-02-22T07:41:06.739Z,8.98
2023-02-22T07:43:39.229Z,9.11
2023-02-22T07:46:11.735Z,9.30
2023-02-22T07:48:46.871Z,9.25
2023-02-22T07:51:21.195Z,9.45
2023-02-22T07:53:53.340Z,9.34
2023-02-22T07:56:25.573Z,9.38
2023-02-22T07:58:57.523Z,9.32
2023-02-22T08:01:29.835Z,9.41
2023-02-22T08:04:04.677Z,9.49
2023-02-22T08:06:37.191Z,9.39
2023-02-22T08:09:09.614Z,9.31
2023-02-22T08:11:42.316Z,9.51
2023-02-22T08:14:14.711Z,9.62
2023-02-22T08:16:47.490Z,9.38
2023-02-22T08:19:23.263Z,9.52
2023-02-22T08:21:56.112Z,9.22
2023-02-22T08:24:28.484Z,9.54
2023-02-22T08:27:01.113Z,9.49
2023-02-22T08:29:34.711Z,9.51
2023-02-22T08:32:08.269Z,9.59
2023-02-22T08:34:43.838Z,9.72
2023-02-22T08:37:17.115Z,9.68
2023-02-22T08:39:50.192Z,9.70
2023-02-22T08:42:23.255Z,9.53
2023-02-22T08:44:56.376Z,9.68
2023-02-22T08:47:30.182Z,9.91
2023-02-22T08:50:05.537Z,10.10
2023-02-22T08:52:38.688Z,9.98
2023-02-22T08:55:12.172Z,9.78
2023-02-22T08:57:45.531Z,9.98
2023-02-22T09:00:20.267Z,10.05
2023-02-22T09:02:54.099Z,9.79
2023-02-22T09:05:31.320Z,9.56
2023-02-22T09:08:05.457Z,9.66
2023-02-22T09:10:41.132Z,9.75
2023-02-22T09:13:14.607Z,9.78
2023-02-22T09:15:46.889Z,10.08
2023-02-22T09:18:21.492Z,10.15
2023-02-22T09:20:56.647Z,10.30
2023-02-22T09:23:30.289Z,10.35
2023-02-22T09:26:02.925Z,10.41
2023-02-22T09:28:35.525Z,10.35
2023-02-22T09:31:08.084Z,10.32
2023-02-22T09:33:40.811Z,10.50
2023-02-22T09:36:16.159Z,10.56
2023-02-22T09:38:49.006Z,10.67
2023-02-22T09:41:35.214Z,10.61
2023-02-22T09:44:20.203Z,10.48
2023-02-22T09:46:56.530Z,10.42
2023-02-22T09:49:38.239Z,10.49
2023-02-22T09:52:22.125Z,10.52
2023-02-22T09:55:05.547Z,10.92
2023-02-22T09:57:42.993Z,10.80
2023-02-22T10:00:21.583Z,10.82
2023-02-22T10:03:04.374Z,10.97
2023-02-22T10:05:44.142Z,11.07
2023-02-22T10:11:28.971Z,11.36
2023-02-22T10:14:09.897Z,11.45
2023-02-22T10:16:53.761Z,11.53
2023-02-22T10:19:35.848Z,11.46
2023-02-22T10:22:30.770Z,11.64
2023-02-22T10:25:09.798Z,11.70
2023-02-22T10:27:46.566Z,11.57
2023-02-22T10:30:25.738Z,11.70
2023-02-22T10:33:05.748Z,11.45
2023-02-22T10:35:41.536Z,11.62
2023-02-22T10:38:23.929Z,11.37
2023-02-22T10:41:04.207Z,11.66
2023-02-22T10:43:36.799Z,11.27
2023-02-22T10:46:12.807Z,11.28
2023-02-22T10:48:48.324Z,11.51
2023-02-22T10:51:34.205Z,11.72
2023-02-22T10:54:27.249Z,11.25
2023-02-22T10:57:04.521Z,11.11
2023-02-22T10:59:38.842Z,11.47
2023-02-22T11:02:21.800Z,11.41
2023-02-22T11:04:57.460Z,11.61
2023-02-22T11:07:32.218Z,11.47
2023-02-22T11:10:08.559Z,11.38
2023-02-22T11:12:48.247Z,11.46
2023-02-22T11:15:32.319Z,11.57
2023-02-22T11:18:07.511Z,11.59
2023-02-22T11:20:43.358Z,11.32
2023-02-22T11:23:15.940Z,11.62
2023-02-22T11:25:48.564Z,11.52
2023-02-22T11:28:33.207Z,11.29
2023-02-22T11:31:19.824Z,11.12
2023-02-22T11:33:58.479Z,11.41
2023-02-22T11:36:41.404Z,11.60
2023-02-22T11:39:28.474Z,11.66
2023-02-22T11:42:01.602Z,11.47
2023-02-22T11:44:37.279Z,11.53
2023-02-22T11:47:15.755Z,11.57
2023-02-22T11:49:49.562Z,11.49
2023-02-22T11:52:28.729Z,11.56
2023-02-22T11:55:13.115Z,11.65
2023-02-22T11:57:57.514Z,11.26
2023-02-22T12:00:43.836Z,10.95
2023-02-22T12:03:42.529Z,11.37
2023-02-22T12:06:25.773Z,11.59
2023-02-22T12:09:10.549Z,11.62
2023-02-22T12:11:55.374Z,11.69
2023-02-22T12:14:38.437Z,11.48
2023-02-22T12:17:35.516Z,11.59
2023-02-22T12:20:21.927Z,11.51
2023-02-22T12:23:10.192Z,11.53
2023-02-22T12:25:50.999Z,11.88
2023-02-22T12:28:28.199Z,11.73
2023-02-22T12:31:17.865Z,11.72
2023-02-22T12:34:13.265Z,11.79
2023-02-22T12:36:52.276Z,11.30
2023-02-22T12:39:52.224Z,11.53
2023-02-22T12:42:33.285Z,11.46
2023-02-22T12:45:11.772Z,11.62
2023-02-22T12:48:05.648Z,11.67
2023-02-22T12:50:50.160Z,11.60
2023-02-22T12:53:29.204Z,11.49
2023-02-22T12:59:30.044Z,11.73
2023-02-22T13:02:15.049Z,11.80
2023-02-22T13:04:47.971Z,12.02
2023-02-22T13:07:43.606Z,11.67
2023-02-22T13:10:38.845Z,11.47
2023-02-22T13:13:23.028Z,11.79
2023-02-22T13:16:04.489Z,11.57
2023-02-22T13:18:43.131Z,11.42
2023-02-22T13:21:24.053Z,11.40
2023-02-22T13:24:06.933Z,11.25
2023-02-22T13:26:48.728Z,11.35
2023-02-22T13:29:32.009Z,11.41
2023-02-22T13:32:17.323Z,11.24
2023-02-22T13:35:01.491Z,11.22
2023-02-22T13:37:50.489Z,10.92
2023-02-22T13:40:47.246Z,11.40
2023-02-22T13:43:52.164Z,11.14
2023-02-22T13:46:59.544Z,11.07
2023-02-22T13:49:50.746Z,11.09
2023-02-22T13:52:25.507Z,11.19
2023-02-22T13:55:01.762Z,10.93
2023-02-22T13:57:41.064Z,10.84
2023-02-22T14:00:43.283Z,11.02
2023-02-22T14:03:36.671Z,10.82
2023-02-22T14:06:10.181Z,11.01
2023-02-22T14:08:43.445Z,10.84
2023-02-22T14:11:43.926Z,11.11
2023-02-22T14:14:20.702Z,11.08
2023-02-22T14:17:27.589Z,11.39
2023-02-22T14:20:30.443Z,11.18
2023-02-22T14:23:37.320Z,11.25
2023-02-22T14:26:20.527Z,11.10
2023-02-22T14:28:57.744Z,11.18
2023-02-22T14:31:37.648Z,11.05
2023-02-22T14:34:16.441Z,11.17
2023-02-22T14:36:55.105Z,11.07
2023-02-22T14:39:37.896Z,11.07
2023-02-22T14:42:15.989Z,11.10
2023-02-22T14:44:57.678Z,11.04
2023-02-22T14:47:40.059Z,10.80
2023-02-22T14:50:23.437Z,11.03
2023-02-22T14:53:04.466Z,11.16
2023-02-22T14:55:42.149Z,11.22
2023-02-22T14:58:21.892Z,11.18
2023-02-22T15:00:57.215Z,11.09
2023-02-22T15:03:40.043Z,10.94
2023-02-22T15:09:30.224Z,11.13
2023-02-22T15:12:18.684Z,10.97
2023-02-22T15:14:52.017Z,11.00
2023-02-22T15:17:27.848Z,10.97
2023-02-22T15:20:02.263Z,10.83
2023-02-22T15:22:40.036Z,10.49
2023-02-22T15:25:15.243Z,10.56
2023-02-22T15:27:50.284Z,10.70
2023-02-22T15:30:30.091Z,10.64
2023-02-22T15:33:15.399Z,10.55
2023-02-22T15:35:57.050Z,10.57
2023-02-22T15:38:32.621Z,10.67
2023-02-22T15:41:08.868Z,10.53
2023-02-22T15:43:41.338Z,10.43
2023-02-22T15:46:16.461Z,10.60
2023-02-22T15:49:07.066Z,10.64
2023-02-22T15:51:46.779Z,10.63
2023-02-22T15:54:27.174Z,10.52
2023-02-22T15:57:00.369Z,10.14
2023-02-22T15:59:35.319Z,10.33
2023-02-22T16:02:08.545Z,10.33
2023-02-22T16:04:45.912Z,10.21
2023-02-22T16:07:24.417Z,10.23
2023-02-22T16:09:56.341Z,10.21
2023-02-22T16:12:31.027Z,10.44
2023-02-22T16:15:03.217Z,10.03
2023-02-22T16:17:56.050Z,10.16
2023-02-22T16:20:39.050Z,10.03
2023-02-22T16:23:29.132Z,9.93
2023-02-22T16:26:23.602Z,10.06
2023-02-22T16:28:58.331Z,10.06
2023-02-22T16:31:34.164Z,10.06
2023-02-22T16:34:06.921Z,9.99
2023-02-22T16:36:45.376Z,9.72
2023-02-22T16:39:25.289Z,9.52
2023-02-22T16:41:59.804Z,9.62
2023-02-22T16:44:31.617Z,9.63
2023-02-22T16:47:03.740Z,9.54
2023-02-22T16:49:35.122Z,9.48
2023-02-22T16:52:10.605Z,9.32
2023-02-22T16:54:48.831Z,9.36
2023-02-22T16:57:23.954Z,9.59
2023-02-22T16:59:55.573Z,9.54
2023-02-22T17:02:28.133Z,9.48
2023-02-22T17:04:59.919Z,9.53
2023-02-22T17:07:33.024Z,9.74
2023-02-22T17:10:08.903Z,9.63
2023-02-22T17:12:44.301Z,9.46
2023-02-22T17:15:24.998Z,9.43
2023-02-22T17:17:59.943Z,9.35
2023-02-22T17:20:33.180Z,9.39
2023-02-22T17:23:08.597Z,9.38
2023-02-22T17:25:45.985Z,9.21
2023-02-22T17:28:19.225Z,9.12
2023-02-22T17:30:52.268Z,9.40
2023-02-22T17:33:28.157Z,9.50
2023-02-22T17:36:02.418Z,9.19
2023-02-22T17:38:35.752Z,9.12
2023-02-22T17:41:11.627Z,9.14
2023-02-22T17:43:43.956Z,9.08
2023-02-22T17:46:16.129Z,9.21
2023-02-22T17:48:49.219Z,8.99
2023-02-22T17:51:21.481Z,9.00
2023-02-22T17:53:55.606Z,9.03
2023-02-22T17:56:29.898Z,9.08
2023-02-22T17:59:02.057Z,8.78
2023-02-22T18:01:35.838Z,9.09
2023-02-22T18:04:08.305Z,9.11
2023-02-22T18:06:53.783Z,8.83
2023-02-22T18:09:26.604Z,8.89
2023-02-22T18:12:01.825Z,8.94
2023-02-22T18:14:34.469Z,8.87
2023-02-22T18:17:06.219Z,9.04
2023-02-22T18:19:38.336Z,9.12
2023-02-22T18:22:11.012Z,8.81
2023-02-22T18:24:43.256Z,8.79
2023-02-22T18:27:18.004Z,8.88
2023-02-22T18:29:50.317Z,8.66
2023-02-22T18:32:22.418Z,8.87
2023-02-22T18:34:55.035Z,8.87
2023-02-22T18:37:28.579Z,8.83
2023-02-22T18:40:02.047Z,8.75
2023-02-22T18:42:40.353Z,8.84
2023-02-22T18:45:14.526Z,8.62
2023-02-22T18:47:47.537Z,8.73
2023-02-22T18:50:19.686Z,8.69
2023-02-22T18:52:51.312Z,8.74
2023-02-22T18:55:24.419Z,8.68
2023-02-22T18:57:59.745Z,8.56
2023-02-22T19:00:31.830Z,8.71
2023-02-22T19:03:05.535Z,8.83
2023-02-22T19:05:39.166Z,8.66
2023-02-22T19:08:11.849Z,8.87
2023-02-22T19:10:44.168Z,8.78
2023-02-22T19:13:19.408Z,8.65
2023-02-22T19:15:51.780Z,8.75
2023-02-22T19:18:24.009Z,8.66
2023-02-22T19:21:00.187Z,8.68
2023-02-22T19:23:34.536Z,8.31
2023-02-22T19:26:09.684Z,8.38
2023-02-22T19:28:44.520Z,8.39
2023-02-22T19:31:18.586Z,8.56
2023-02-22T19:33:53.844Z,8.54
2023-02-22T19:36:26.479Z,8.50
2023-02-22T19:38:58.324Z,8.25
2023-02-22T19:41:30.679Z,8.31
2023-02-22T19:44:05.179Z,8.32
2023-02-22T19:46:38.072Z,8.14
2023-02-22T19:49:10.912Z,8.30
2023-02-22T19:51:43.153Z,8.32
2023-02-22T19:54:21.161Z,8.30
2023-02-22T19:56:54.824Z,8.19
2023-02-22T19:59:29.171Z,8.12
2023-02-22T20:02:03.002Z,8.26
2023-02-22T20:04:34.392Z,7.94
2023-02-22T20:07:06.587Z,8.05
2023-02-22T20:09:40.705Z,8.11
2023-02-22T20:12:12.454Z,8.26
2023-02-22T20:14:46.913Z,7.95
2023-02-22T20:17:18.706Z,7.92
2023-02-22T20:19:50.748Z,8.01
2023-02-22T20:22:22.698Z,7.99
2023-02-22T20:24:54.267Z,7.85
2023-02-22T20:27:27.486Z,7.68
2023-02-22T20:30:01.651Z,7.88
2023-02-22T20:32:36.013Z,7.93
2023-02-22T20:35:08.998Z,7.91
2023-02-22T20:37:42.749Z,7.80
2023-02-22T20:40:14.316Z,7.47
2023-02-22T20:42:47.951Z,7.40
2023-02-22T20:45:21.977Z,7.52
2023-02-22T20:47:54.959Z,7.46
2023-02-22T20:50:26.512Z,7.54
2023-02-22T20:52:59.205Z,7.41
2023-02-22T20:55:31.519Z,7.33
2023-02-22T20:58:03.809Z,7.42
2023-02-22T21:00:38.119Z,7.24
2023-02-22T21:03:10.319Z,7.51
2023-02-22T21:05:45.844Z,7.27
2023-02-22T21:08:18.666Z,7.34
2023-02-22T21:10:51.788Z,7.21
2023-02-22T21:13:24.926Z,7.05
2023-02-22T21:15:59.930Z,7.15
2023-02-22T21:18:32.313Z,7.05
2023-02-22T21:21:10.632Z,7.09
2023-02-22T21:23:44.547Z,7.19
2023-02-22T21:26:19.056Z,7.08
2023-02-22T21:28:51.922Z,7.12
2023-02-22T21:31:28.247Z,7.07
2023-02-22T21:34:02.614Z,7.14
2023-02-22T21:36:35.408Z,6.86
2023-02-22T21:39:18.470Z,6.99
2023-02-22T21:44:47.235Z,6.94
2023-02-22T21:47:22.299Z,6.83
2023-02-22T21:49:54.112Z,6.87
2023-02-22T21:52:26.774Z,6.94
2023-02-22T21:54:58.694Z,6.94
2023-02-22T21:57:32.430Z,6.76
2023-02-22T22:00:13.120Z,6.80
2023-02-22T22:02:49.302Z,7.03
2023-02-22T22:05:31.950Z,6.79
2023-02-22T22:08:05.863Z,6.56
2023-02-22T22:10:37.050Z,-145.97
2023-02-22T22:13:09.233Z,-145.97
2023-02-22T22:15:40.934Z,-145.97
2023-02-22T22:18:18.434Z,-145.97
2023-02-22T22:20:52.026Z,-145.97
2023-02-22T22:23:26.688Z,-145.97
2023-02-22T22:26:09.941Z,-145.97
2023-02-22T22:28:46.364Z,-145.97
2023-02-22T22:31:24.187Z,-145.97
2023-02-22T22:34:00.570Z,-145.97
2023-02-22T22:36:34.964Z,-145.97
2023-02-22T22:39:14.621Z,-145.97
2023-02-22T22:41:50.286Z,-145.97
2023-02-22T22:44:22.628Z,-145.97
2023-02-22T22:47:06.207Z,-145.97
2023-02-22T22:49:43.105Z,-145.97
2023-02-22T22:52:16.766Z,-145.97
2023-02-22T22:54:50.925Z,-145.97
2023-02-22T22:57:23.810Z,-145.97
2023-02-22T22:59:56.289Z,-145.97
2023-02-22T23:02:29.472Z,-145.97
2023-02-22T23:05:13.153Z,-145.97
2023-02-22T23:07:45.017Z,-145.97
2023-02-22T23:10:17.138Z,-145.97
2023-02-22T23:12:48.916Z,-145.97
2023-02-22T23:15:21.288Z,-145.97
2023-02-22T23:17:56.290Z,-145.97
2023-02-22T23:20:31.022Z,-145.97
2023-02-22T23:23:03.032Z,-145.97
2023-02-22T23:25:35.261Z,-145.97
2023-02-22T23:28:14.894Z,-145.97
2023-02-22T23:30:47.263Z,-145.97
2023-02-22T23:33:19.501Z,-145.97
2023-02-22T23:35:54.388Z,-145.97
2023-02-22T23:38:26.981Z,-145.97
2023-02-22T23:40:59.463Z,-145.97
2023-02-22T23:43:32.795Z,-145.97
2023-02-22T23:46:11.029Z,-145.97
2023-02-22T23:48:46.841Z,-145.97
2023-02-22T23:51:25.825Z,-145.97
2023-02-22T23:53:58.668Z,-145.97
2023-02-22T23:56:31.299Z,-145.97
2023-02-22T23:59:06.995Z,-145.97
